Windsor Mill, Maryland
Current Conditions -  °F | °C
As of 9:54 AM on Friday 24 Oct 2014 (Local Time) from KBWI Reporting Station
Scattered Clouds Scattered Clouds  
Wind Chill: 59°   Ceiling: Unl
Heat Index: 59°   Visibility: 10mi
Dew Point: 42°   Wind: 20mph
Humidity: 53%   Direction: 310°NW
Pressure: 29.95"   Gusts: 28mph
Location:  39.33°N, 76.76°W
Report Text: KBWI 241354Z 31017G24KT 10SM FEW160 SCT250 15/06 A2995 RMK AO2 SLP141 T01500056
Loading
Personal Weather Stations






























Interactive Weather Map
Tropical Storm Tracking
New forecast layout! Learn more

10-Day Weather Forecast

Advertisements
Track Severe Weather on mobile